sensor_id;sensor_type;location;lat;lon;timestamp;pressure;altitude;pressure_sealevel;temperature;humidity
72055;BME280;59936;51.490;5.436;2023-05-23T00:04:44;101742.38;;;14.23;81.46
72055;BME280;59936;51.490;5.436;2023-05-23T00:07:14;101746.25;;;14.04;81.04
72055;BME280;59936;51.490;5.436;2023-05-23T00:09:43;101746.25;;;14.04;81.04
72055;BME280;59936;51.490;5.436;2023-05-23T00:12:12;101731.59;;;14.07;79.78
72055;BME280;59936;51.490;5.436;2023-05-23T00:14:40;101743.59;;;14.12;79.96
72055;BME280;59936;51.490;5.436;2023-05-23T00:17:09;101743.59;;;14.12;79.96
72055;BME280;59936;51.490;5.436;2023-05-23T00:19:37;101738.69;;;14.08;80.71
72055;BME280;59936;51.490;5.436;2023-05-23T00:22:06;101740.03;;;14.03;81.43
72055;BME280;59936;51.490;5.436;2023-05-23T00:24:34;101740.03;;;14.03;81.43
72055;BME280;59936;51.490;5.436;2023-05-23T00:27:03;101741.69;;;13.96;82.38
72055;BME280;59936;51.490;5.436;2023-05-23T00:29:32;101755.69;;;14.08;81.38
72055;BME280;59936;51.490;5.436;2023-05-23T00:32:00;101755.69;;;14.08;81.38
72055;BME280;59936;51.490;5.436;2023-05-23T00:34:29;101750.47;;;14.07;80.82
72055;BME280;59936;51.490;5.436;2023-05-23T00:36:57;101758.56;;;14.07;81.61
72055;BME280;59936;51.490;5.436;2023-05-23T00:39:26;101753.00;;;14.08;81.21
72055;BME280;59936;51.490;5.436;2023-05-23T00:41:55;101751.66;;;14.12;80.74
72055;BME280;59936;51.490;5.436;2023-05-23T00:44:23;101753.84;;;14.17;80.42
72055;BME280;59936;51.490;5.436;2023-05-23T00:46:55;101760.59;;;14.21;79.44
72055;BME280;59936;51.490;5.436;2023-05-23T00:49:25;101756.53;;;14.25;78.92
72055;BME280;59936;51.490;5.436;2023-05-23T00:51:54;101758.91;;;14.20;81.30
72055;BME280;59936;51.490;5.436;2023-05-23T00:54:27;101762.09;;;14.23;79.78
72055;BME280;59936;51.490;5.436;2023-05-23T00:56:57;101756.22;;;14.28;79.08
72055;BME280;59936;51.490;5.436;2023-05-23T00:59:26;101755.69;;;14.24;79.96
72055;BME280;59936;51.490;5.436;2023-05-23T01:01:55;101757.91;;;14.29;79.54
72055;BME280;59936;51.490;5.436;2023-05-23T01:04:25;101760.09;;;14.25;79.82
72055;BME280;59936;51.490;5.436;2023-05-23T01:06:55;101754.53;;;14.27;80.06
72055;BME280;59936;51.490;5.436;2023-05-23T01:09:24;101759.25;;;14.25;80.13
72055;BME280;59936;51.490;5.436;2023-05-23T01:15:11;101773.56;;;14.25;80.94
72055;BME280;59936;51.490;5.436;2023-05-23T01:17:52;101770.34;;;14.22;79.40
72055;BME280;59936;51.490;5.436;2023-05-23T01:20:40;101763.44;;;14.19;79.93
72055;BME280;59936;51.490;5.436;2023-05-23T01:26:55;101766.66;;;14.15;79.00
72055;BME280;59936;51.490;5.436;2023-05-23T01:29:43;101770.53;;;14.20;78.79
72055;BME280;59936;51.490;5.436;2023-05-23T01:32:14;101776.06;;;14.19;78.35
72055;BME280;59936;51.490;5.436;2023-05-23T01:34:44;101777.44;;;14.15;78.47
72055;BME280;59936;51.490;5.436;2023-05-23T01:37:14;101785.69;;;14.13;78.33
72055;BME280;59936;51.490;5.436;2023-05-23T01:39:44;101785.31;;;14.00;79.13
72055;BME280;59936;51.490;5.436;2023-05-23T01:42:13;101784.47;;;13.99;78.92
72055;BME280;59936;51.490;5.436;2023-05-23T01:44:44;101795.81;;;14.11;77.74
72055;BME280;59936;51.490;5.436;2023-05-23T01:47:14;101787.72;;;14.11;77.83
72055;BME280;59936;51.490;5.436;2023-05-23T01:49:43;101795.78;;;14.19;77.38
72055;BME280;59936;51.490;5.436;2023-05-23T01:52:13;101795.78;;;14.19;77.38
72055;BME280;59936;51.490;5.436;2023-05-23T01:54:43;101790.22;;;14.21;76.56
72055;BME280;59936;51.490;5.436;2023-05-23T01:57:12;101790.06;;;14.06;78.15
72055;BME280;59936;51.490;5.436;2023-05-23T01:59:41;101788.03;;;14.00;78.55
72055;BME280;59936;51.490;5.436;2023-05-23T02:02:10;101801.69;;;14.07;77.65
72055;BME280;59936;51.490;5.436;2023-05-23T02:04:38;101791.75;;;14.07;77.33
72055;BME280;59936;51.490;5.436;2023-05-23T02:07:07;101806.88;;;14.00;78.54
72055;BME280;59936;51.490;5.436;2023-05-23T02:09:35;101806.88;;;14.00;78.54
72055;BME280;59936;51.490;5.436;2023-05-23T02:12:04;101805.88;;;13.93;79.04
72055;BME280;59936;51.490;5.436;2023-05-23T02:14:33;101805.88;;;13.93;79.04
72055;BME280;59936;51.490;5.436;2023-05-23T02:17:02;101808.22;;;13.88;79.37
72055;BME280;59936;51.490;5.436;2023-05-23T02:19:30;101816.66;;;13.93;78.27
72055;BME280;59936;51.490;5.436;2023-05-23T02:21:59;101809.22;;;13.87;79.40
72055;BME280;59936;51.490;5.436;2023-05-23T02:24:27;101812.88;;;13.78;81.37
72055;BME280;59936;51.490;5.436;2023-05-23T02:26:56;101822.13;;;13.75;80.63
72055;BME280;59936;51.490;5.436;2023-05-23T02:29:25;101819.47;;;13.83;79.60
72055;BME280;59936;51.490;5.436;2023-05-23T02:31:53;101828.25;;;13.85;79.60
72055;BME280;59936;51.490;5.436;2023-05-23T02:34:22;101830.63;;;13.88;78.94
72055;BME280;59936;51.490;5.436;2023-05-23T02:36:50;101821.53;;;13.89;78.90
72055;BME280;59936;51.490;5.436;2023-05-23T02:39:19;101827.41;;;13.85;79.73
72055;BME280;59936;51.490;5.436;2023-05-23T02:41:47;101826.06;;;13.89;78.91
72055;BME280;59936;51.490;5.436;2023-05-23T02:44:16;101827.56;;;13.83;79.86
72055;BME280;59936;51.490;5.436;2023-05-23T02:46:50;101824.72;;;13.85;79.57
72055;BME280;59936;51.490;5.436;2023-05-23T02:49:19;101820.31;;;13.84;79.23
72055;BME280;59936;51.490;5.436;2023-05-23T02:51:48;101829.91;;;13.78;80.23
72055;BME280;59936;51.490;5.436;2023-05-23T02:54:16;101833.44;;;13.79;80.08
72055;BME280;59936;51.490;5.436;2023-05-23T02:56:45;101833.44;;;13.79;80.08
72055;BME280;59936;51.490;5.436;2023-05-23T02:59:13;101829.41;;;13.83;79.42
72055;BME280;59936;51.490;5.436;2023-05-23T03:01:42;101830.09;;;13.85;79.66
72055;BME280;59936;51.490;5.436;2023-05-23T03:04:10;101830.09;;;13.85;79.66
72055;BME280;59936;51.490;5.436;2023-05-23T03:06:43;101820.31;;;13.84;79.10
72055;BME280;59936;51.490;5.436;2023-05-23T03:09:17;101817.28;;;13.79;79.69
72055;BME280;59936;51.490;5.436;2023-05-23T03:11:45;101822.31;;;13.74;79.80
72055;BME280;59936;51.490;5.436;2023-05-23T03:14:18;101823.34;;;13.81;79.19
72055;BME280;59936;51.490;5.436;2023-05-23T03:16:52;101824.88;;;13.83;78.70
72055;BME280;59936;51.490;5.436;2023-05-23T03:19:20;101823.06;;;13.92;77.82
72055;BME280;59936;51.490;5.436;2023-05-23T03:21:49;101823.06;;;13.92;77.82
72055;BME280;59936;51.490;5.436;2023-05-23T03:24:17;101826.75;;;13.91;77.84
72055;BME280;59936;51.490;5.436;2023-05-23T03:26:46;101822.50;;;13.80;78.92
72055;BME280;59936;51.490;5.436;2023-05-23T03:29:15;101826.22;;;13.87;77.95
72055;BME280;59936;51.490;5.436;2023-05-23T03:31:43;101824.72;;;13.85;78.20
72055;BME280;59936;51.490;5.436;2023-05-23T03:34:12;101837.38;;;13.92;77.43
72055;BME280;59936;51.490;5.436;2023-05-23T03:36:40;101837.53;;;13.91;77.48
72055;BME280;59936;51.490;5.436;2023-05-23T03:39:09;101845.63;;;13.99;76.92
72055;BME280;59936;51.490;5.436;2023-05-23T03:41:37;101845.63;;;13.99;76.92
72055;BME280;59936;51.490;5.436;2023-05-23T03:44:06;101838.69;;;13.96;77.48
72055;BME280;59936;51.490;5.436;2023-05-23T03:46:35;101838.69;;;13.96;77.48
72055;BME280;59936;51.490;5.436;2023-05-23T03:49:04;101837.38;;;13.92;77.54
72055;BME280;59936;51.490;5.436;2023-05-23T03:51:33;101829.44;;;13.91;77.58
72055;BME280;59936;51.490;5.436;2023-05-23T03:54:01;101841.41;;;13.96;77.59
72055;BME280;59936;51.490;5.436;2023-05-23T03:56:30;101841.41;;;13.96;77.59
72055;BME280;59936;51.490;5.436;2023-05-23T03:58:59;101849.47;;;13.88;78.03
72055;BME280;59936;51.490;5.436;2023-05-23T04:01:27;101838.22;;;13.93;77.57
72055;BME280;59936;51.490;5.436;2023-05-23T04:03:56;101840.06;;;13.92;77.82
72055;BME280;59936;51.490;5.436;2023-05-23T04:06:25;101842.25;;;13.89;78.12
72055;BME280;59936;51.490;5.436;2023-05-23T04:08:53;101840.91;;;13.93;77.84
72055;BME280;59936;51.490;5.436;2023-05-23T04:11:22;101846.78;;;13.96;77.44
72055;BME280;59936;51.490;5.436;2023-05-23T04:13:50;101847.16;;;14.01;76.92
72055;BME280;59936;51.490;5.436;2023-05-23T04:16:19;101864.47;;;13.99;77.58
72055;BME280;59936;51.490;5.436;2023-05-23T04:18:48;101854.03;;;13.88;78.24
72055;BME280;59936;51.490;5.436;2023-05-23T04:21:17;101864.16;;;13.94;77.84
72055;BME280;59936;51.490;5.436;2023-05-23T04:23:45;101854.88;;;13.96;77.90
72055;BME280;59936;51.490;5.436;2023-05-23T04:26:14;101857.72;;;13.95;78.04
72055;BME280;59936;51.490;5.436;2023-05-23T04:28:42;101857.56;;;13.96;77.89
72055;BME280;59936;51.490;5.436;2023-05-23T04:31:11;101861.31;;;14.03;77.44
72055;BME280;59936;51.490;5.436;2023-05-23T04:33:40;101869.59;;;14.10;76.88
72055;BME280;59936;51.490;5.436;2023-05-23T04:36:08;101867.84;;;14.01;77.85
72055;BME280;59936;51.490;5.436;2023-05-23T04:38:37;101873.25;;;14.01;77.88
72055;BME280;59936;51.490;5.436;2023-05-23T04:41:06;101871.25;;;14.03;77.67
72055;BME280;59936;51.490;5.436;2023-05-23T04:43:35;101874.63;;;14.05;77.62
72055;BME280;59936;51.490;5.436;2023-05-23T04:46:03;101878.31;;;14.04;77.90
72055;BME280;59936;51.490;5.436;2023-05-23T04:48:32;101877.97;;;13.99;78.12
72055;BME280;59936;51.490;5.436;2023-05-23T04:51:00;101883.03;;;14.02;77.78
72055;BME280;59936;51.490;5.436;2023-05-23T04:53:29;101886.25;;;14.06;77.52
72055;BME280;59936;51.490;5.436;2023-05-23T04:55:58;101886.25;;;14.06;77.52
72055;BME280;59936;51.490;5.436;2023-05-23T04:58:26;101890.47;;;14.08;77.25
72055;BME280;59936;51.490;5.436;2023-05-23T05:00:55;101878.84;;;14.08;77.43
72055;BME280;59936;51.490;5.436;2023-05-23T05:03:23;101892.81;;;14.03;77.38
72055;BME280;59936;51.490;5.436;2023-05-23T05:05:52;101899.53;;;13.99;77.73
72055;BME280;59936;51.490;5.436;2023-05-23T05:08:20;101899.16;;;13.86;78.56
72055;BME280;59936;51.490;5.436;2023-05-23T05:10:49;101902.53;;;13.88;78.17
72055;BME280;59936;51.490;5.436;2023-05-23T05:13:18;101902.38;;;13.89;78.01
72055;BME280;59936;51.490;5.436;2023-05-23T05:15:46;101911.28;;;13.90;78.03
72055;BME280;59936;51.490;5.436;2023-05-23T05:18:15;101911.47;;;13.96;77.49
72055;BME280;59936;51.490;5.436;2023-05-23T05:20:43;101911.81;;;14.01;77.25
72055;BME280;59936;51.490;5.436;2023-05-23T05:23:16;101914.03;;;14.06;77.05
72055;BME280;59936;51.490;5.436;2023-05-23T05:25:45;101909.63;;;13.97;77.36
72055;BME280;59936;51.490;5.436;2023-05-23T05:28:13;101922.13;;;14.06;76.52
72055;BME280;59936;51.490;5.436;2023-05-23T05:30:42;101920.06;;;14.00;76.95
72055;BME280;59936;51.490;5.436;2023-05-23T05:33:11;101918.00;;;13.86;77.55
72055;BME280;59936;51.490;5.436;2023-05-23T05:35:39;101919.31;;;13.82;77.78
72055;BME280;59936;51.490;5.436;2023-05-23T05:38:08;101926.50;;;13.73;77.89
72055;BME280;59936;51.490;5.436;2023-05-23T05:40:36;101942.28;;;13.60;79.30
72055;BME280;59936;51.490;5.436;2023-05-23T05:43:05;101930.66;;;13.59;78.56
72055;BME280;59936;51.490;5.436;2023-05-23T05:45:33;101932.88;;;13.64;77.78
72055;BME280;59936;51.490;5.436;2023-05-23T05:48:02;101934.72;;;13.63;78.09
72055;BME280;59936;51.490;5.436;2023-05-23T05:50:31;101944.81;;;13.61;77.59
72055;BME280;59936;51.490;5.436;2023-05-23T05:52:59;101944.81;;;13.61;77.59
72055;BME280;59936;51.490;5.436;2023-05-23T05:55:28;101943.97;;;13.61;77.34
72055;BME280;59936;51.490;5.436;2023-05-23T05:57:56;101949.81;;;13.56;77.43
72055;BME280;59936;51.490;5.436;2023-05-23T06:00:25;101949.81;;;13.56;77.43
72055;BME280;59936;51.490;5.436;2023-05-23T06:02:54;101950.69;;;13.57;77.12
72055;BME280;59936;51.490;5.436;2023-05-23T06:05:22;101950.69;;;13.57;77.12
72055;BME280;59936;51.490;5.436;2023-05-23T06:07:52;101954.38;;;13.56;76.90
72055;BME280;59936;51.490;5.436;2023-05-23T06:10:20;101955.03;;;13.50;77.25
72055;BME280;59936;51.490;5.436;2023-05-23T06:12:49;101963.00;;;13.42;77.53
72055;BME280;59936;51.490;5.436;2023-05-23T06:15:17;101958.31;;;13.44;77.27
72055;BME280;59936;51.490;5.436;2023-05-23T06:17:46;101964.53;;;13.44;77.08
72055;BME280;59936;51.490;5.436;2023-05-23T06:20:18;101970.09;;;13.43;77.06
72055;BME280;59936;51.490;5.436;2023-05-23T06:22:47;101971.78;;;13.44;76.81
72055;BME280;59936;51.490;5.436;2023-05-23T06:25:15;101981.00;;;13.41;77.16
72055;BME280;59936;51.490;5.436;2023-05-23T06:27:44;101983.84;;;13.40;76.62
72055;BME280;59936;51.490;5.436;2023-05-23T06:30:13;101981.09;;;13.31;76.80
72055;BME280;59936;51.490;5.436;2023-05-23T06:32:46;101981.09;;;13.31;76.80
72055;BME280;59936;51.490;5.436;2023-05-23T06:35:15;101978.91;;;13.27;76.80
72055;BME280;59936;51.490;5.436;2023-05-23T06:37:43;101981.91;;;13.24;77.14
72055;BME280;59936;51.490;5.436;2023-05-23T06:40:12;101984.19;;;13.19;77.09
72055;BME280;59936;51.490;5.436;2023-05-23T06:42:41;101984.97;;;13.29;76.74
72055;BME280;59936;51.490;5.436;2023-05-23T06:45:09;101991.84;;;13.31;76.46
72055;BME280;59936;51.490;5.436;2023-05-23T06:47:38;101998.81;;;13.16;76.52
72055;BME280;59936;51.490;5.436;2023-05-23T06:50:07;101998.81;;;13.16;76.52
72055;BME280;59936;51.490;5.436;2023-05-23T06:52:36;102014.72;;;13.10;76.50
72055;BME280;59936;51.490;5.436;2023-05-23T06:55:05;102014.72;;;13.10;76.50
72055;BME280;59936;51.490;5.436;2023-05-23T06:57:33;102018.75;;;13.06;76.62
72055;BME280;59936;51.490;5.436;2023-05-23T07:00:02;102011.34;;;13.08;76.21
72055;BME280;59936;51.490;5.436;2023-05-23T07:02:31;102025.56;;;13.18;76.10
72055;BME280;59936;51.490;5.436;2023-05-23T07:05:00;102025.56;;;13.18;76.10
72055;BME280;59936;51.490;5.436;2023-05-23T07:07:29;102037.88;;;13.20;75.72
72055;BME280;59936;51.490;5.436;2023-05-23T07:09:57;102025.56;;;13.18;75.68
72055;BME280;59936;51.490;5.436;2023-05-23T07:12:26;102038.34;;;12.98;75.82
72055;BME280;59936;51.490;5.436;2023-05-23T07:14:54;102048.50;;;13.04;75.63
72055;BME280;59936;51.490;5.436;2023-05-23T07:17:23;102048.50;;;13.04;75.63
72055;BME280;59936;51.490;5.436;2023-05-23T07:19:52;102041.47;;;13.11;75.40
72055;BME280;59936;51.490;5.436;2023-05-23T07:22:20;102036.34;;;13.18;74.78
72055;BME280;59936;51.490;5.436;2023-05-23T07:24:49;102040.47;;;13.30;74.69
72055;BME280;59936;51.490;5.436;2023-05-23T07:27:17;102041.56;;;13.55;72.33
72055;BME280;59936;51.490;5.436;2023-05-23T07:29:46;102041.56;;;13.55;72.33
72055;BME280;59936;51.490;5.436;2023-05-23T07:32:15;102040.31;;;13.67;71.94
72055;BME280;59936;51.490;5.436;2023-05-23T07:34:47;102036.72;;;13.84;72.26
72055;BME280;59936;51.490;5.436;2023-05-23T07:37:15;102041.63;;;14.15;72.56
72055;BME280;59936;51.490;5.436;2023-05-23T07:39:44;102048.03;;;14.22;68.88
72055;BME280;59936;51.490;5.436;2023-05-23T07:42:13;102056.72;;;14.42;69.20
72055;BME280;59936;51.490;5.436;2023-05-23T07:44:44;102056.72;;;14.42;69.20
72055;BME280;59936;51.490;5.436;2023-05-23T07:47:13;102040.06;;;15.04;67.73
72055;BME280;59936;51.490;5.436;2023-05-23T07:49:42;102045.09;;;14.83;66.30
72055;BME280;59936;51.490;5.436;2023-05-23T07:52:10;102045.09;;;14.83;66.30
72055;BME280;59936;51.490;5.436;2023-05-23T07:54:39;102055.75;;;14.93;66.25
72055;BME280;59936;51.490;5.436;2023-05-23T07:57:08;102045.84;;;15.18;65.93
72055;BME280;59936;51.490;5.436;2023-05-23T07:59:37;102060.19;;;15.43;64.89
72055;BME280;59936;51.490;5.436;2023-05-23T08:02:06;102064.69;;;14.93;65.07
72055;BME280;59936;51.490;5.436;2023-05-23T08:04:34;102073.78;;;14.92;66.02
72055;BME280;59936;51.490;5.436;2023-05-23T08:07:03;102073.78;;;14.92;66.02
72055;BME280;59936;51.490;5.436;2023-05-23T08:09:32;102061.44;;;14.74;65.08
72055;BME280;59936;51.490;5.436;2023-05-23T08:12:00;102067.84;;;14.81;66.29
72055;BME280;59936;51.490;5.436;2023-05-23T08:14:29;102073.28;;;14.89;66.22
72055;BME280;59936;51.490;5.436;2023-05-23T08:16:57;102084.88;;;14.81;66.52
72055;BME280;59936;51.490;5.436;2023-05-23T08:19:26;102084.88;;;14.81;66.52
72055;BME280;59936;51.490;5.436;2023-05-23T08:21:55;102084.72;;;14.75;65.93
72055;BME280;59936;51.490;5.436;2023-05-23T08:24:29;102084.72;;;14.75;65.93
72055;BME280;59936;51.490;5.436;2023-05-23T08:27:02;102080.19;;;14.91;66.32
72055;BME280;59936;51.490;5.436;2023-05-23T08:29:32;102076.84;;;14.97;66.31
72055;BME280;59936;51.490;5.436;2023-05-23T08:32:01;102075.16;;;14.96;66.05
72055;BME280;59936;51.490;5.436;2023-05-23T08:34:29;102078.16;;;14.85;66.05
72055;BME280;59936;51.490;5.436;2023-05-23T08:36:58;102079.31;;;14.83;66.06
72055;BME280;59936;51.490;5.436;2023-05-23T08:39:26;102086.91;;;14.79;65.18
72055;BME280;59936;51.490;5.436;2023-05-23T08:41:55;102082.78;;;14.59;65.77
72055;BME280;59936;51.490;5.436;2023-05-23T08:44:24;102082.78;;;14.59;65.77
72055;BME280;59936;51.490;5.436;2023-05-23T08:46:52;102091.72;;;14.67;66.68
72055;BME280;59936;51.490;5.436;2023-05-23T08:49:21;102085.94;;;14.54;65.89
72055;BME280;59936;51.490;5.436;2023-05-23T08:51:51;102076.53;;;14.58;66.54
72055;BME280;59936;51.490;5.436;2023-05-23T08:54:25;102081.25;;;14.64;66.86
72055;BME280;59936;51.490;5.436;2023-05-23T08:56:53;102086.88;;;14.71;66.51
72055;BME280;59936;51.490;5.436;2023-05-23T08:59:22;102091.69;;;14.93;66.50
72055;BME280;59936;51.490;5.436;2023-05-23T09:01:54;102089.31;;;14.90;65.73
72055;BME280;59936;51.490;5.436;2023-05-23T09:04:23;102092.72;;;14.58;65.94
72055;BME280;59936;51.490;5.436;2023-05-23T09:06:54;102096.66;;;14.72;66.51
72055;BME280;59936;51.490;5.436;2023-05-23T09:09:24;102103.69;;;15.07;66.48
72055;BME280;59936;51.490;5.436;2023-05-23T09:11:54;102103.69;;;15.07;66.48
72055;BME280;59936;51.490;5.436;2023-05-23T09:14:24;102106.41;;;15.15;66.45
72055;BME280;59936;51.490;5.436;2023-05-23T09:16:52;102103.41;;;15.34;66.40
72055;BME280;59936;51.490;5.436;2023-05-23T09:19:28;102101.91;;;15.89;65.52
72055;BME280;59936;51.490;5.436;2023-05-23T09:22:01;102096.81;;;16.10;65.08
72055;BME280;59936;51.490;5.436;2023-05-23T09:24:34;102099.34;;;15.95;64.51
72055;BME280;59936;51.490;5.436;2023-05-23T09:27:04;102112.31;;;15.27;64.52
72055;BME280;59936;51.490;5.436;2023-05-23T09:29:37;102115.66;;;15.04;65.52
72055;BME280;59936;51.490;5.436;2023-05-23T09:32:19;102118.50;;;15.03;65.93
72055;BME280;59936;51.490;5.436;2023-05-23T09:34:58;102122.19;;;14.60;65.34
72055;BME280;59936;51.490;5.436;2023-05-23T09:37:32;102122.41;;;14.66;65.76
72055;BME280;59936;51.490;5.436;2023-05-23T09:40:07;102116.50;;;14.97;65.49
72055;BME280;59936;51.490;5.436;2023-05-23T09:42:43;102118.94;;;15.49;64.94
72055;BME280;59936;51.490;5.436;2023-05-23T09:45:14;102113.03;;;15.78;62.65
72055;BME280;59936;51.490;5.436;2023-05-23T09:47:53;102112.69;;;15.72;63.96
72055;BME280;59936;51.490;5.436;2023-05-23T09:50:22;102120.97;;;15.79;64.38
72055;BME280;59936;51.490;5.436;2023-05-23T09:52:51;102115.41;;;15.40;62.13
72055;BME280;59936;51.490;5.436;2023-05-23T09:55:20;102128.00;;;15.15;63.14
72055;BME280;59936;51.490;5.436;2023-05-23T09:57:52;102124.84;;;15.36;63.52
72055;BME280;59936;51.490;5.436;2023-05-23T10:00:22;102117.09;;;15.57;63.66
72055;BME280;59936;51.490;5.436;2023-05-23T10:03:05;102121.09;;;15.29;61.13
72055;BME280;59936;51.490;5.436;2023-05-23T10:08:26;102117.28;;;15.64;61.67
72055;BME280;59936;51.490;5.436;2023-05-23T10:13:48;102112.19;;;15.93;56.36
72055;BME280;59936;51.490;5.436;2023-05-23T10:22:12;102105.97;;;17.87;55.94
72055;BME280;59936;51.490;5.436;2023-05-23T10:24:44;102105.97;;;17.87;55.94
72055;BME280;59936;51.490;5.436;2023-05-23T10:27:13;102100.25;;;18.19;55.33
72055;BME280;59936;51.490;5.436;2023-05-23T10:29:42;102097.91;;;18.31;56.89
72055;BME280;59936;51.490;5.436;2023-05-23T10:32:12;102117.09;;;18.59;56.25
72055;BME280;59936;51.490;5.436;2023-05-23T10:38:17;102110.53;;;19.19;56.24
72055;BME280;59936;51.490;5.436;2023-05-23T10:41:12;102112.31;;;18.61;48.48
72055;BME280;59936;51.490;5.436;2023-05-23T10:43:52;102101.75;;;19.38;46.05
72055;BME280;59936;51.490;5.436;2023-05-23T10:46:52;102103.16;;;19.76;52.11
72055;BME280;59936;51.490;5.436;2023-05-23T10:52:15;102106.47;;;19.29;48.27
72055;BME280;59936;51.490;5.436;2023-05-23T10:57:18;102100.63;;;18.45;49.27
72055;BME280;59936;51.490;5.436;2023-05-23T10:59:49;102099.91;;;19.02;52.36
72055;BME280;59936;51.490;5.436;2023-05-23T11:02:24;102099.28;;;19.64;52.22
72055;BME280;59936;51.490;5.436;2023-05-23T11:05:20;102092.09;;;20.06;51.77
72055;BME280;59936;51.490;5.436;2023-05-23T11:08:09;102091.00;;;20.28;44.54
72055;BME280;59936;51.490;5.436;2023-05-23T11:11:01;102092.22;;;19.91;47.30
72055;BME280;59936;51.490;5.436;2023-05-23T11:21:58;102108.66;;;18.09;47.96
72055;BME280;59936;51.490;5.436;2023-05-23T11:25:01;102099.03;;;18.66;50.87
72055;BME280;59936;51.490;5.436;2023-05-23T11:27:36;102098.97;;;19.53;42.81
72055;BME280;59936;51.490;5.436;2023-05-23T11:30:15;102111.84;;;19.44;47.17
72055;BME280;59936;51.490;5.436;2023-05-23T11:32:52;102102.66;;;19.24;48.16
72055;BME280;59936;51.490;5.436;2023-05-23T11:35:21;102111.19;;;19.42;46.00
72055;BME280;59936;51.490;5.436;2023-05-23T11:37:50;102100.53;;;19.40;48.73
72055;BME280;59936;51.490;5.436;2023-05-23T11:40:27;102095.91;;;19.62;49.15
72055;BME280;59936;51.490;5.436;2023-05-23T11:42:58;102104.63;;;19.79;42.87
72055;BME280;59936;51.490;5.436;2023-05-23T11:45:28;102111.84;;;19.23;46.57
72055;BME280;59936;51.490;5.436;2023-05-23T11:48:03;102114.25;;;19.75;46.60
72055;BME280;59936;51.490;5.436;2023-05-23T11:50:33;102114.25;;;19.75;46.60
72055;BME280;59936;51.490;5.436;2023-05-23T11:53:11;102116.13;;;19.53;48.56
72055;BME280;59936;51.490;5.436;2023-05-23T11:55:50;102122.91;;;18.41;47.15
72055;BME280;59936;51.490;5.436;2023-05-23T11:58:36;102113.44;;;17.85;47.91
72055;BME280;59936;51.490;5.436;2023-05-23T12:01:07;102113.16;;;18.32;49.45
72055;BME280;59936;51.490;5.436;2023-05-23T12:03:47;102114.56;;;18.57;47.53
72055;BME280;59936;51.490;5.436;2023-05-23T12:06:20;102118.97;;;18.58;44.55
72055;BME280;59936;51.490;5.436;2023-05-23T12:08:52;102116.34;;;19.16;47.17
72055;BME280;59936;51.490;5.436;2023-05-23T12:11:21;102116.34;;;19.16;47.17
72055;BME280;59936;51.490;5.436;2023-05-23T12:13:51;102120.63;;;19.03;48.10
72055;BME280;59936;51.490;5.436;2023-05-23T12:16:19;102126.75;;;18.47;46.99
72055;BME280;59936;51.490;5.436;2023-05-23T12:18:48;102126.00;;;18.23;47.32
72055;BME280;59936;51.490;5.436;2023-05-23T12:21:17;102125.59;;;19.00;47.64
72055;BME280;59936;51.490;5.436;2023-05-23T12:23:45;102128.00;;;19.09;47.33
72055;BME280;59936;51.490;5.436;2023-05-23T12:26:14;102128.00;;;19.09;47.33
72055;BME280;59936;51.490;5.436;2023-05-23T12:28:44;102128.06;;;18.65;46.18
72055;BME280;59936;51.490;5.436;2023-05-23T12:31:20;102123.63;;;18.94;47.48
72055;BME280;59936;51.490;5.436;2023-05-23T12:33:51;102131.16;;;18.92;48.02
72055;BME280;59936;51.490;5.436;2023-05-23T12:36:23;102124.22;;;19.25;45.91
72055;BME280;59936;51.490;5.436;2023-05-23T12:38:52;102137.81;;;19.46;47.15
72055;BME280;59936;51.490;5.436;2023-05-23T12:41:21;102137.00;;;18.95;46.90
72055;BME280;59936;51.490;5.436;2023-05-23T12:43:52;102139.91;;;18.94;47.99
72055;BME280;59936;51.490;5.436;2023-05-23T12:46:23;102145.47;;;18.56;45.84
72055;BME280;59936;51.490;5.436;2023-05-23T12:48:53;102149.38;;;18.54;47.83
72055;BME280;59936;51.490;5.436;2023-05-23T12:51:22;102150.31;;;18.31;47.28
72055;BME280;59936;51.490;5.436;2023-05-23T12:53:50;102154.81;;;18.54;47.16
72055;BME280;59936;51.490;5.436;2023-05-23T12:56:19;102154.81;;;18.54;47.16
72055;BME280;59936;51.490;5.436;2023-05-23T12:58:48;102139.00;;;18.57;46.84
72055;BME280;59936;51.490;5.436;2023-05-23T13:01:17;102146.41;;;18.49;46.28
72055;BME280;59936;51.490;5.436;2023-05-23T13:03:45;102159.09;;;18.33;47.65
72055;BME280;59936;51.490;5.436;2023-05-23T13:06:14;102161.94;;;18.40;46.79
72055;BME280;59936;51.490;5.436;2023-05-23T13:08:43;102161.94;;;18.40;46.79
72055;BME280;59936;51.490;5.436;2023-05-23T13:11:11;102148.16;;;18.56;45.92
72055;BME280;59936;51.490;5.436;2023-05-23T13:13:40;102147.13;;;18.72;45.07
72055;BME280;59936;51.490;5.436;2023-05-23T13:16:09;102145.25;;;18.72;45.20
72055;BME280;59936;51.490;5.436;2023-05-23T13:18:37;102158.28;;;18.77;45.73
72055;BME280;59936;51.490;5.436;2023-05-23T13:21:06;102150.59;;;18.51;46.66
72055;BME280;59936;51.490;5.436;2023-05-23T13:23:35;102155.25;;;18.28;46.14
72055;BME280;59936;51.490;5.436;2023-05-23T13:26:04;102147.91;;;18.66;45.56
72055;BME280;59936;51.490;5.436;2023-05-23T13:28:37;102140.38;;;18.83;46.05
72055;BME280;59936;51.490;5.436;2023-05-23T13:31:06;102140.38;;;18.83;46.05
72055;BME280;59936;51.490;5.436;2023-05-23T13:33:34;102141.50;;;19.03;45.05
72055;BME280;59936;51.490;5.436;2023-05-23T13:36:03;102141.50;;;19.03;45.05
72055;BME280;59936;51.490;5.436;2023-05-23T13:38:32;102128.13;;;19.01;43.86
72055;BME280;59936;51.490;5.436;2023-05-23T13:41:00;102140.16;;;19.50;45.01
72055;BME280;59936;51.490;5.436;2023-05-23T13:43:29;102134.72;;;19.92;45.05
72055;BME280;59936;51.490;5.436;2023-05-23T13:46:01;102135.53;;;19.71;45.30